sensor_id;sensor_type;location;lat;lon;timestamp;temperature;humidity
16060;DHT22;8134;49.552;7.632;2023-04-24T07:23:23;11.80;99.90
16060;DHT22;8134;49.552;7.632;2023-04-24T07:25:49;11.80;99.90
16060;DHT22;8134;49.552;7.632;2023-04-24T07:28:14;11.90;99.90
16060;DHT22;8134;49.552;7.632;2023-04-24T07:30:40;11.80;99.90
16060;DHT22;8134;49.552;7.632;2023-04-24T07:33:06;11.70;99.90
16060;DHT22;8134;49.552;7.632;2023-04-24T07:35:32;11.70;99.90
16060;DHT22;8134;49.552;7.632;2023-04-24T07:37:58;11.70;99.90
16060;DHT22;8134;49.552;7.632;2023-04-24T07:40:23;11.70;99.90
16060;DHT22;8134;49.552;7.632;2023-04-24T07:42:49;11.80;99.90
16060;DHT22;8134;49.552;7.632;2023-04-24T07:45:15;11.80;99.90
16060;DHT22;8134;49.552;7.632;2023-04-24T07:47:43;11.80;99.90
16060;DHT22;8134;49.552;7.632;2023-04-24T07:50:11;11.70;99.90
16060;DHT22;8134;49.552;7.632;2023-04-24T07:52:38;11.80;99.90
16060;DHT22;8134;49.552;7.632;2023-04-24T07:55:04;11.70;99.90
16060;DHT22;8134;49.552;7.632;2023-04-24T07:57:31;11.60;99.90
16060;DHT22;8134;49.552;7.632;2023-04-24T07:59:57;11.60;99.90
16060;DHT22;8134;49.552;7.632;2023-04-24T08:02:23;11.60;99.90
16060;DHT22;8134;49.552;7.632;2023-04-24T08:04:52;11.60;99.90
16060;DHT22;8134;49.552;7.632;2023-04-24T08:07:19;11.60;99.90
16060;DHT22;8134;49.552;7.632;2023-04-24T08:09:46;11.70;99.90
16060;DHT22;8134;49.552;7.632;2023-04-24T08:12:12;11.60;99.90
16060;DHT22;8134;49.552;7.632;2023-04-24T08:14:38;11.60;99.90
16060;DHT22;8134;49.552;7.632;2023-04-24T08:17:05;11.70;99.90
16060;DHT22;8134;49.552;7.632;2023-04-24T08:19:31;11.70;99.90
16060;DHT22;8134;49.552;7.632;2023-04-24T08:21:57;11.80;99.90
16060;DHT22;8134;49.552;7.632;2023-04-24T08:24:24;11.80;99.90
16060;DHT22;8134;49.552;7.632;2023-04-24T08:26:50;11.70;99.90
16060;DHT22;8134;49.552;7.632;2023-04-24T08:29:17;11.60;99.90
16060;DHT22;8134;49.552;7.632;2023-04-24T08:31:43;11.70;99.90
16060;DHT22;8134;49.552;7.632;2023-04-24T08:34:09;11.70;99.90
16060;DHT22;8134;49.552;7.632;2023-04-24T08:36:35;11.80;99.90
16060;DHT22;8134;49.552;7.632;2023-04-24T08:39:02;11.80;99.90
16060;DHT22;8134;49.552;7.632;2023-04-24T08:41:29;11.80;99.90
16060;DHT22;8134;49.552;7.632;2023-04-24T08:43:55;11.80;99.90
16060;DHT22;8134;49.552;7.632;2023-04-24T08:46:23;11.70;99.90
16060;DHT22;8134;49.552;7.632;2023-04-24T08:48:50;11.70;99.90
16060;DHT22;8134;49.552;7.632;2023-04-24T08:51:16;11.70;99.90
16060;DHT22;8134;49.552;7.632;2023-04-24T08:53:42;11.70;99.90
16060;DHT22;8134;49.552;7.632;2023-04-24T08:56:08;11.60;99.90
16060;DHT22;8134;49.552;7.632;2023-04-24T08:58:34;11.60;99.90
16060;DHT22;8134;49.552;7.632;2023-04-24T09:01:00;11.50;99.90
16060;DHT22;8134;49.552;7.632;2023-04-24T09:03:27;11.40;99.90
16060;DHT22;8134;49.552;7.632;2023-04-24T09:05:53;11.50;99.90
16060;DHT22;8134;49.552;7.632;2023-04-24T09:08:19;11.40;99.90
16060;DHT22;8134;49.552;7.632;2023-04-24T09:10:46;11.50;99.90
16060;DHT22;8134;49.552;7.632;2023-04-24T09:13:12;11.50;99.90
16060;DHT22;8134;49.552;7.632;2023-04-24T09:15:39;11.40;99.90
16060;DHT22;8134;49.552;7.632;2023-04-24T09:18:05;11.40;99.90
16060;DHT22;8134;49.552;7.632;2023-04-24T09:20:31;11.40;99.90
16060;DHT22;8134;49.552;7.632;2023-04-24T09:22:58;11.40;99.90
16060;DHT22;8134;49.552;7.632;2023-04-24T09:25:33;11.50;99.90
16060;DHT22;8134;49.552;7.632;2023-04-24T09:28:02;11.60;99.90
16060;DHT22;8134;49.552;7.632;2023-04-24T09:30:28;11.70;99.90
16060;DHT22;8134;49.552;7.632;2023-04-24T09:33:15;11.60;99.90
16060;DHT22;8134;49.552;7.632;2023-04-24T09:35:50;11.50;99.90
16060;DHT22;8134;49.552;7.632;2023-04-24T09:38:16;11.50;99.90
16060;DHT22;8134;49.552;7.632;2023-04-24T09:40:41;11.50;99.90
16060;DHT22;8134;49.552;7.632;2023-04-24T09:43:10;11.60;99.90
16060;DHT22;8134;49.552;7.632;2023-04-24T09:45:37;11.60;99.90
16060;DHT22;8134;49.552;7.632;2023-04-24T09:48:03;11.60;99.90
16060;DHT22;8134;49.552;7.632;2023-04-24T09:50:31;11.60;99.90
16060;DHT22;8134;49.552;7.632;2023-04-24T09:52:58;11.60;99.90
16060;DHT22;8134;49.552;7.632;2023-04-24T09:55:25;11.70;99.90
16060;DHT22;8134;49.552;7.632;2023-04-24T09:58:00;11.70;99.90
16060;DHT22;8134;49.552;7.632;2023-04-24T10:00:29;11.60;99.90
16060;DHT22;8134;49.552;7.632;2023-04-24T10:02:56;11.80;99.90
16060;DHT22;8134;49.552;7.632;2023-04-24T10:05:29;11.80;99.90
16060;DHT22;8134;49.552;7.632;2023-04-24T10:07:59;12.00;99.90
16060;DHT22;8134;49.552;7.632;2023-04-24T10:10:25;12.10;99.90
16060;DHT22;8134;49.552;7.632;2023-04-24T10:12:51;12.20;99.90
16060;DHT22;8134;49.552;7.632;2023-04-24T10:15:21;12.20;99.90
16060;DHT22;8134;49.552;7.632;2023-04-24T10:17:47;12.20;99.90
16060;DHT22;8134;49.552;7.632;2023-04-24T10:20:24;12.10;99.90
16060;DHT22;8134;49.552;7.632;2023-04-24T10:22:51;12.10;99.90
16060;DHT22;8134;49.552;7.632;2023-04-24T10:25:18;12.10;99.90
16060;DHT22;8134;49.552;7.632;2023-04-24T10:27:45;12.20;99.90
16060;DHT22;8134;49.552;7.632;2023-04-24T10:30:12;12.30;99.90
16060;DHT22;8134;49.552;7.632;2023-04-24T10:32:38;12.40;99.90
16060;DHT22;8134;49.552;7.632;2023-04-24T10:35:08;12.50;99.90
16060;DHT22;8134;49.552;7.632;2023-04-24T10:37:38;12.50;99.90
16060;DHT22;8134;49.552;7.632;2023-04-24T10:40:04;12.60;99.90
16060;DHT22;8134;49.552;7.632;2023-04-24T10:42:30;12.70;99.90
16060;DHT22;8134;49.552;7.632;2023-04-24T10:44:57;12.70;99.90
16060;DHT22;8134;49.552;7.632;2023-04-24T10:47:23;12.70;99.90
16060;DHT22;8134;49.552;7.632;2023-04-24T10:49:50;12.70;99.90
16060;DHT22;8134;49.552;7.632;2023-04-24T10:52:16;12.60;99.90
16060;DHT22;8134;49.552;7.632;2023-04-24T10:54:46;12.50;99.90
16060;DHT22;8134;49.552;7.632;2023-04-24T11:00:12;12.30;99.90
16060;DHT22;8134;49.552;7.632;2023-04-24T11:02:37;12.30;99.90
16060;DHT22;8134;49.552;7.632;2023-04-24T11:05:03;12.30;99.90
16060;DHT22;8134;49.552;7.632;2023-04-24T11:07:29;12.40;99.90
16060;DHT22;8134;49.552;7.632;2023-04-24T11:09:58;12.40;99.90
16060;DHT22;8134;49.552;7.632;2023-04-24T11:12:26;12.60;99.90
16060;DHT22;8134;49.552;7.632;2023-04-24T11:17:30;12.70;99.90
16060;DHT22;8134;49.552;7.632;2023-04-24T11:22:30;12.80;99.90
16060;DHT22;8134;49.552;7.632;2023-04-24T11:24:58;12.90;99.90
16060;DHT22;8134;49.552;7.632;2023-04-24T11:27:27;13.10;99.90
16060;DHT22;8134;49.552;7.632;2023-04-24T11:34:53;13.20;99.90
16060;DHT22;8134;49.552;7.632;2023-04-24T11:37:19;13.20;99.90
16060;DHT22;8134;49.552;7.632;2023-04-24T11:39:45;13.20;99.90
16060;DHT22;8134;49.552;7.632;2023-04-24T11:42:10;13.30;99.90
16060;DHT22;8134;49.552;7.632;2023-04-24T11:44:38;13.20;99.90
16060;DHT22;8134;49.552;7.632;2023-04-24T11:47:05;13.30;99.90
16060;DHT22;8134;49.552;7.632;2023-04-24T11:49:32;13.30;99.90
16060;DHT22;8134;49.552;7.632;2023-04-24T11:51:59;13.30;99.90
16060;DHT22;8134;49.552;7.632;2023-04-24T11:54:25;13.30;99.90
16060;DHT22;8134;49.552;7.632;2023-04-24T11:56:50;13.40;99.90
16060;DHT22;8134;49.552;7.632;2023-04-24T11:59:16;13.40;99.90
16060;DHT22;8134;49.552;7.632;2023-04-24T12:01:46;13.30;99.90
16060;DHT22;8134;49.552;7.632;2023-04-24T12:04:12;13.30;99.90
16060;DHT22;8134;49.552;7.632;2023-04-24T12:06:38;13.20;99.90
16060;DHT22;8134;49.552;7.632;2023-04-24T12:09:04;13.20;99.90
16060;DHT22;8134;49.552;7.632;2023-04-24T12:11:31;13.20;99.90
16060;DHT22;8134;49.552;7.632;2023-04-24T12:14:08;13.30;99.90
16060;DHT22;8134;49.552;7.632;2023-04-24T12:16:35;13.30;99.90
16060;DHT22;8134;49.552;7.632;2023-04-24T12:19:01;13.40;99.90
16060;DHT22;8134;49.552;7.632;2023-04-24T12:21:27;13.50;99.90
16060;DHT22;8134;49.552;7.632;2023-04-24T12:23:55;13.60;99.90
16060;DHT22;8134;49.552;7.632;2023-04-24T12:26:22;13.60;99.90
16060;DHT22;8134;49.552;7.632;2023-04-24T12:28:48;13.60;99.90
16060;DHT22;8134;49.552;7.632;2023-04-24T12:31:18;13.60;99.90
16060;DHT22;8134;49.552;7.632;2023-04-24T12:33:46;13.60;99.90
16060;DHT22;8134;49.552;7.632;2023-04-24T12:36:12;13.50;99.90
16060;DHT22;8134;49.552;7.632;2023-04-24T12:38:38;13.50;99.90
16060;DHT22;8134;49.552;7.632;2023-04-24T12:41:09;13.40;99.90
16060;DHT22;8134;49.552;7.632;2023-04-24T12:43:36;13.30;99.90
16060;DHT22;8134;49.552;7.632;2023-04-24T12:46:02;13.30;99.80
16060;DHT22;8134;49.552;7.632;2023-04-24T12:48:28;13.30;99.70
16060;DHT22;8134;49.552;7.632;2023-04-24T12:50:54;13.40;99.90
16060;DHT22;8134;49.552;7.632;2023-04-24T12:53:21;13.50;99.90
16060;DHT22;8134;49.552;7.632;2023-04-24T12:55:47;13.50;99.40
16060;DHT22;8134;49.552;7.632;2023-04-24T12:58:21;13.60;99.90
16060;DHT22;8134;49.552;7.632;2023-04-24T13:00:47;13.60;99.70
16060;DHT22;8134;49.552;7.632;2023-04-24T13:03:13;13.60;99.10
16060;DHT22;8134;49.552;7.632;2023-04-24T13:05:39;13.50;99.10
16060;DHT22;8134;49.552;7.632;2023-04-24T13:08:05;13.50;99.00
16060;DHT22;8134;49.552;7.632;2023-04-24T13:10:31;13.60;98.70
16060;DHT22;8134;49.552;7.632;2023-04-24T13:12:56;13.50;98.90
16060;DHT22;8134;49.552;7.632;2023-04-24T13:15:22;13.50;98.30
16060;DHT22;8134;49.552;7.632;2023-04-24T13:17:48;13.50;98.40
16060;DHT22;8134;49.552;7.632;2023-04-24T13:20:14;13.50;98.20
16060;DHT22;8134;49.552;7.632;2023-04-24T13:22:39;13.40;98.30
16060;DHT22;8134;49.552;7.632;2023-04-24T13:25:05;13.50;98.80
16060;DHT22;8134;49.552;7.632;2023-04-24T13:27:34;13.50;99.20
16060;DHT22;8134;49.552;7.632;2023-04-24T13:30:00;13.60;99.00
16060;DHT22;8134;49.552;7.632;2023-04-24T13:32:25;13.70;99.60
16060;DHT22;8134;49.552;7.632;2023-04-24T13:34:52;13.80;99.10
16060;DHT22;8134;49.552;7.632;2023-04-24T13:37:18;13.90;98.00
16060;DHT22;8134;49.552;7.632;2023-04-24T13:39:44;13.90;98.60
16060;DHT22;8134;49.552;7.632;2023-04-24T13:42:10;13.80;97.90
16060;DHT22;8134;49.552;7.632;2023-04-24T13:44:36;13.70;98.50
16060;DHT22;8134;49.552;7.632;2023-04-24T13:47:02;13.70;99.40
16060;DHT22;8134;49.552;7.632;2023-04-24T13:49:29;13.70;99.90
16060;DHT22;8134;49.552;7.632;2023-04-24T13:51:54;13.70;99.90
16060;DHT22;8134;49.552;7.632;2023-04-24T13:54:20;13.70;99.90
16060;DHT22;8134;49.552;7.632;2023-04-24T13:56:47;13.60;99.90
16060;DHT22;8134;49.552;7.632;2023-04-24T13:59:12;13.60;99.90
16060;DHT22;8134;49.552;7.632;2023-04-24T14:01:38;13.70;99.90
16060;DHT22;8134;49.552;7.632;2023-04-24T14:04:04;13.70;99.90
16060;DHT22;8134;49.552;7.632;2023-04-24T14:06:29;13.70;99.90
16060;DHT22;8134;49.552;7.632;2023-04-24T14:08:56;13.60;99.90
16060;DHT22;8134;49.552;7.632;2023-04-24T14:11:22;13.50;99.90
16060;DHT22;8134;49.552;7.632;2023-04-24T14:13:47;13.40;99.90
16060;DHT22;8134;49.552;7.632;2023-04-24T14:16:13;13.40;99.90
16060;DHT22;8134;49.552;7.632;2023-04-24T14:18:39;14.00;99.90
16060;DHT22;8134;49.552;7.632;2023-04-24T14:21:05;14.30;99.90
16060;DHT22;8134;49.552;7.632;2023-04-24T14:23:30;14.20;99.90
16060;DHT22;8134;49.552;7.632;2023-04-24T14:25:59;14.40;99.90
16060;DHT22;8134;49.552;7.632;2023-04-24T14:28:25;14.60;99.90
16060;DHT22;8134;49.552;7.632;2023-04-24T14:30:51;14.90;99.90
16060;DHT22;8134;49.552;7.632;2023-04-24T14:33:17;15.10;99.90
16060;DHT22;8134;49.552;7.632;2023-04-24T14:35:42;15.40;99.90
16060;DHT22;8134;49.552;7.632;2023-04-24T14:38:08;15.40;99.90
16060;DHT22;8134;49.552;7.632;2023-04-24T14:40:34;15.40;99.90
16060;DHT22;8134;49.552;7.632;2023-04-24T14:43:00;15.10;99.90
16060;DHT22;8134;49.552;7.632;2023-04-24T14:45:25;14.90;99.50
16060;DHT22;8134;49.552;7.632;2023-04-24T14:47:52;14.70;99.90
16060;DHT22;8134;49.552;7.632;2023-04-24T14:50:17;14.40;99.00
16060;DHT22;8134;49.552;7.632;2023-04-24T14:52:43;14.30;99.70
16060;DHT22;8134;49.552;7.632;2023-04-24T14:55:09;14.20;99.90
16060;DHT22;8134;49.552;7.632;2023-04-24T14:57:37;14.20;99.90
16060;DHT22;8134;49.552;7.632;2023-04-24T15:00:22;14.20;99.90
16060;DHT22;8134;49.552;7.632;2023-04-24T15:02:57;13.90;99.90
16060;DHT22;8134;49.552;7.632;2023-04-24T15:05:46;13.70;99.90
16060;DHT22;8134;49.552;7.632;2023-04-24T15:08:32;13.50;99.90
16060;DHT22;8134;49.552;7.632;2023-04-24T15:10:58;13.40;99.90
16060;DHT22;8134;49.552;7.632;2023-04-24T15:13:24;13.40;99.90
16060;DHT22;8134;49.552;7.632;2023-04-24T15:15:51;13.40;99.90
16060;DHT22;8134;49.552;7.632;2023-04-24T15:18:17;13.40;99.90
16060;DHT22;8134;49.552;7.632;2023-04-24T15:20:43;13.50;99.90
16060;DHT22;8134;49.552;7.632;2023-04-24T15:23:09;13.50;99.90
16060;DHT22;8134;49.552;7.632;2023-04-24T15:25:35;13.50;99.90
16060;DHT22;8134;49.552;7.632;2023-04-24T15:28:01;13.50;99.90
16060;DHT22;8134;49.552;7.632;2023-04-24T15:30:27;13.60;99.90
16060;DHT22;8134;49.552;7.632;2023-04-24T15:32:52;14.00;99.90
16060;DHT22;8134;49.552;7.632;2023-04-24T15:35:18;14.30;99.90
16060;DHT22;8134;49.552;7.632;2023-04-24T15:37:43;14.60;99.90
16060;DHT22;8134;49.552;7.632;2023-04-24T15:40:09;14.90;99.90
16060;DHT22;8134;49.552;7.632;2023-04-24T15:42:36;15.00;99.90
16060;DHT22;8134;49.552;7.632;2023-04-24T15:45:02;15.10;99.90
16060;DHT22;8134;49.552;7.632;2023-04-24T15:47:28;15.20;99.90
16060;DHT22;8134;49.552;7.632;2023-04-24T15:49:54;15.20;99.90
16060;DHT22;8134;49.552;7.632;2023-04-24T15:52:20;15.30;99.70
16060;DHT22;8134;49.552;7.632;2023-04-24T15:54:46;15.30;98.20
16060;DHT22;8134;49.552;7.632;2023-04-24T15:57:11;15.20;97.80
16060;DHT22;8134;49.552;7.632;2023-04-24T15:59:37;15.10;97.90
16060;DHT22;8134;49.552;7.632;2023-04-24T16:02:03;14.90;97.70
16060;DHT22;8134;49.552;7.632;2023-04-24T16:04:29;15.00;97.50
16060;DHT22;8134;49.552;7.632;2023-04-24T16:06:55;15.20;96.50
16060;DHT22;8134;49.552;7.632;2023-04-24T16:09:21;15.10;97.00
16060;DHT22;8134;49.552;7.632;2023-04-24T16:11:47;15.00;95.80
16060;DHT22;8134;49.552;7.632;2023-04-24T16:14:12;15.10;96.50
16060;DHT22;8134;49.552;7.632;2023-04-24T16:16:38;15.20;96.80
16060;DHT22;8134;49.552;7.632;2023-04-24T16:19:04;15.00;95.90
16060;DHT22;8134;49.552;7.632;2023-04-24T16:21:31;14.90;96.70
16060;DHT22;8134;49.552;7.632;2023-04-24T16:23:56;14.70;96.90
16060;DHT22;8134;49.552;7.632;2023-04-24T16:26:22;14.60;96.60
16060;DHT22;8134;49.552;7.632;2023-04-24T16:28:47;14.30;96.90
16060;DHT22;8134;49.552;7.632;2023-04-24T16:31:13;14.30;97.50
16060;DHT22;8134;49.552;7.632;2023-04-24T16:33:38;14.20;97.10
16060;DHT22;8134;49.552;7.632;2023-04-24T16:36:04;14.20;97.10
16060;DHT22;8134;49.552;7.632;2023-04-24T16:38:30;14.10;97.80
16060;DHT22;8134;49.552;7.632;2023-04-24T16:40:55;14.10;97.20
16060;DHT22;8134;49.552;7.632;2023-04-24T16:43:21;14.10;97.90
16060;DHT22;8134;49.552;7.632;2023-04-24T16:45:46;14.00;97.30
16060;DHT22;8134;49.552;7.632;2023-04-24T16:48:12;14.10;98.10
16060;DHT22;8134;49.552;7.632;2023-04-24T16:50:37;14.00;97.30
16060;DHT22;8134;49.552;7.632;2023-04-24T16:53:03;14.00;96.90
16060;DHT22;8134;49.552;7.632;2023-04-24T16:55:29;13.90;97.20
16060;DHT22;8134;49.552;7.632;2023-04-24T16:57:55;13.80;97.40
16060;DHT22;8134;49.552;7.632;2023-04-24T17:00:20;13.80;97.90
16060;DHT22;8134;49.552;7.632;2023-04-24T17:02:46;13.80;97.60
16060;DHT22;8134;49.552;7.632;2023-04-24T17:05:14;13.80;98.20
16060;DHT22;8134;49.552;7.632;2023-04-24T17:07:40;13.80;97.70
16060;DHT22;8134;49.552;7.632;2023-04-24T17:10:06;13.70;97.00
16060;DHT22;8134;49.552;7.632;2023-04-24T17:12:35;13.60;97.50
16060;DHT22;8134;49.552;7.632;2023-04-24T17:15:00;13.60;97.50
16060;DHT22;8134;49.552;7.632;2023-04-24T17:17:26;13.50;97.50
16060;DHT22;8134;49.552;7.632;2023-04-24T17:19:52;13.50;98.00
16060;DHT22;8134;49.552;7.632;2023-04-24T17:25:14;13.60;98.50
16060;DHT22;8134;49.552;7.632;2023-04-24T17:27:40;13.60;98.50
16060;DHT22;8134;49.552;7.632;2023-04-24T17:30:05;13.60;97.90
16060;DHT22;8134;49.552;7.632;2023-04-24T17:32:31;13.50;97.90
16060;DHT22;8134;49.552;7.632;2023-04-24T17:34:57;13.50;98.40
16060;DHT22;8134;49.552;7.632;2023-04-24T17:37:22;13.50;97.90
16060;DHT22;8134;49.552;7.632;2023-04-24T17:39:48;13.50;98.10
16060;DHT22;8134;49.552;7.632;2023-04-24T17:42:14;13.60;97.30
16060;DHT22;8134;49.552;7.632;2023-04-24T17:44:40;13.60;97.40
16060;DHT22;8134;49.552;7.632;2023-04-24T17:47:05;13.40;97.70
16060;DHT22;8134;49.552;7.632;2023-04-24T17:49:31;13.30;97.60
16060;DHT22;8134;49.552;7.632;2023-04-24T17:51:57;13.30;97.30
16060;DHT22;8134;49.552;7.632;2023-04-24T17:54:22;13.20;97.90
16060;DHT22;8134;49.552;7.632;2023-04-24T17:56:48;13.20;98.40
16060;DHT22;8134;49.552;7.632;2023-04-24T17:59:13;13.20;98.10
16060;DHT22;8134;49.552;7.632;2023-04-24T18:01:40;13.10;98.60
16060;DHT22;8134;49.552;7.632;2023-04-24T18:04:06;13.20;99.50
16060;DHT22;8134;49.552;7.632;2023-04-24T18:06:32;13.10;99.80
16060;DHT22;8134;49.552;7.632;2023-04-24T18:08:57;13.00;98.60
16060;DHT22;8134;49.552;7.632;2023-04-24T18:11:23;13.00;99.30
16060;DHT22;8134;49.552;7.632;2023-04-24T18:13:48;12.90;99.30
16060;DHT22;8134;49.552;7.632;2023-04-24T18:16:14;13.00;99.10
16060;DHT22;8134;49.552;7.632;2023-04-24T18:18:40;12.90;99.30
16060;DHT22;8134;49.552;7.632;2023-04-24T18:21:06;12.90;99.00
16060;DHT22;8134;49.552;7.632;2023-04-24T18:23:32;13.00;99.00
16060;DHT22;8134;49.552;7.632;2023-04-24T18:25:59;13.00;98.70
16060;DHT22;8134;49.552;7.632;2023-04-24T18:28:25;12.90;99.20
16060;DHT22;8134;49.552;7.632;2023-04-24T18:30:50;13.00;99.20
16060;DHT22;8134;49.552;7.632;2023-04-24T18:33:16;12.80;98.70
16060;DHT22;8134;49.552;7.632;2023-04-24T18:35:43;12.80;98.90
16060;DHT22;8134;49.552;7.632;2023-04-24T18:38:08;12.90;98.70
16060;DHT22;8134;49.552;7.632;2023-04-24T18:40:34;12.90;99.50
16060;DHT22;8134;49.552;7.632;2023-04-24T18:42:59;12.80;99.00
16060;DHT22;8134;49.552;7.632;2023-04-24T18:45:25;12.80;98.90
16060;DHT22;8134;49.552;7.632;2023-04-24T18:47:50;12.80;99.30
16060;DHT22;8134;49.552;7.632;2023-04-24T18:50:16;12.70;99.60
16060;DHT22;8134;49.552;7.632;2023-04-24T18:52:43;12.70;99.30
16060;DHT22;8134;49.552;7.632;2023-04-24T18:55:09;12.70;99.30
16060;DHT22;8134;49.552;7.632;2023-04-24T18:57:35;12.60;99.30
16060;DHT22;8134;49.552;7.632;2023-04-24T19:00:00;12.60;99.30
16060;DHT22;8134;49.552;7.632;2023-04-24T19:02:26;12.60;99.20
16060;DHT22;8134;49.552;7.632;2023-04-24T19:04:51;12.60;99.60
16060;DHT22;8134;49.552;7.632;2023-04-24T19:07:17;12.60;99.40
16060;DHT22;8134;49.552;7.632;2023-04-24T19:09:44;12.60;99.50
16060;DHT22;8134;49.552;7.632;2023-04-24T19:12:09;12.60;99.90
16060;DHT22;8134;49.552;7.632;2023-04-24T19:14:35;12.70;99.90
16060;DHT22;8134;49.552;7.632;2023-04-24T19:17:00;12.60;99.90
16060;DHT22;8134;49.552;7.632;2023-04-24T19:19:26;12.60;99.90
16060;DHT22;8134;49.552;7.632;2023-04-24T19:21:53;12.60;99.90
16060;DHT22;8134;49.552;7.632;2023-04-24T19:24:18;12.60;99.90
16060;DHT22;8134;49.552;7.632;2023-04-24T19:26:45;12.60;99.90
16060;DHT22;8134;49.552;7.632;2023-04-24T19:29:11;12.50;99.90
16060;DHT22;8134;49.552;7.632;2023-04-24T19:31:36;12.40;99.90
16060;DHT22;8134;49.552;7.632;2023-04-24T19:34:02;12.40;99.90
16060;DHT22;8134;49.552;7.632;2023-04-24T19:36:28;12.40;99.90
16060;DHT22;8134;49.552;7.632;2023-04-24T19:38:54;12.40;99.90
16060;DHT22;8134;49.552;7.632;2023-04-24T19:41:19;12.50;99.90
16060;DHT22;8134;49.552;7.632;2023-04-24T19:43:45;12.40;99.90
16060;DHT22;8134;49.552;7.632;2023-04-24T19:46:12;12.40;99.90
16060;DHT22;8134;49.552;7.632;2023-04-24T19:48:37;12.40;99.90
16060;DHT22;8134;49.552;7.632;2023-04-24T19:51:03;12.40;99.90
16060;DHT22;8134;49.552;7.632;2023-04-24T19:53:28;12.40;99.90
16060;DHT22;8134;49.552;7.632;2023-04-24T19:55:54;12.30;99.90
16060;DHT22;8134;49.552;7.632;2023-04-24T19:58:20;12.10;99.90
16060;DHT22;8134;49.552;7.632;2023-04-24T20:00:45;12.10;99.90
16060;DHT22;8134;49.552;7.632;2023-04-24T20:03:11;12.20;99.90
16060;DHT22;8134;49.552;7.632;2023-04-24T20:05:36;12.20;99.90
16060;DHT22;8134;49.552;7.632;2023-04-24T20:08:02;12.20;99.90
16060;DHT22;8134;49.552;7.632;2023-04-24T20:10:27;12.20;99.90
16060;DHT22;8134;49.552;7.632;2023-04-24T20:12:53;12.10;99.90
